Time;durP1;ratioP1;P1;durP2;ratioP2;P2;SDS_P1;SDS_P2;PMS_P1;PMS_P2;Temp;Humidity;BMP_temperature;BMP_pressure;BME280_temperature;BME280_humidity;BME280_pressure;Samples;Min_cycle;Max_cycle;Signal;HPM_P1;HPM_P2
2023/08/01 00:00:00;;;;;;;6.13;1.23;;;17.20;99.90;;;;;;5083872;28;20215;-84
2023/08/01 00:02:26;;;;;;;2.77;1.53;;;17.10;99.90;;;;;;5064190;28;20228;-83
2023/08/01 00:04:52;;;;;;;1.17;1.07;;;17.10;99.90;;;;;;5065902;28;20274;-84
2023/08/01 00:07:18;;;;;;;1.70;1.37;;;17.00;99.90;;;;;;5048564;28;20227;-84
2023/08/01 00:09:43;;;;;;;12.37;2.03;;;17.00;99.90;;;;;;5064922;28;20224;-84
2023/08/01 00:12:09;;;;;;;3.00;1.17;;;17.00;99.90;;;;;;5065786;28;20288;-85
2023/08/01 00:14:36;;;;;;;2.83;1.53;;;17.00;99.90;;;;;;5048161;28;20266;-84
2023/08/01 00:17:02;;;;;;;8.07;2.57;;;16.90;99.90;;;;;;5064277;28;20220;-84
2023/08/01 00:19:28;;;;;;;5.80;2.37;;;16.90;99.90;;;;;;5083182;28;20225;-84
2023/08/01 00:21:54;;;;;;;1.67;1.57;;;16.90;99.90;;;;;;5048611;28;20220;-84
2023/08/01 00:24:20;;;;;;;6.43;1.90;;;16.90;99.90;;;;;;5049056;28;20207;-84
2023/08/01 00:26:46;;;;;;;7.30;2.20;;;16.90;99.90;;;;;;5066110;28;20234;-84
2023/08/01 00:29:12;;;;;;;6.93;1.73;;;16.80;99.90;;;;;;5066234;28;20220;-84
2023/08/01 00:31:40;;;;;;;4.87;1.67;;;16.70;99.90;;;;;;5083128;28;20224;-84
2023/08/01 00:34:08;;;;;;;3.27;1.40;;;16.70;99.90;;;;;;5049250;28;20251;-84
2023/08/01 00:36:34;;;;;;;3.93;1.30;;;16.70;99.90;;;;;;5031862;28;20677;-84
2023/08/01 00:39:00;;;;;;;6.77;1.97;;;16.70;99.90;;;;;;5047935;28;20926;-83
2023/08/01 00:41:25;;;;;;;1.97;1.70;;;16.60;99.90;;;;;;5064926;28;20635;-84
2023/08/01 00:43:51;;;;;;;9.03;2.00;;;16.60;99.90;;;;;;5065350;28;21060;-84
2023/08/01 00:46:17;;;;;;;7.67;1.67;;;16.60;99.90;;;;;;5063606;28;20739;-84
2023/08/01 00:48:43;;;;;;;2.30;1.80;;;16.60;99.90;;;;;;5030477;28;20721;-84
2023/08/01 00:51:09;;;;;;;3.63;1.43;;;16.50;99.90;;;;;;5048190;28;20284;-84
2023/08/01 00:53:35;;;;;;;2.47;1.97;;;16.60;99.90;;;;;;5065393;28;20217;-84
2023/08/01 00:56:01;;;;;;;4.50;1.73;;;16.50;99.90;;;;;;5062358;28;20242;-84
2023/08/01 00:58:27;;;;;;;3.23;1.37;;;16.50;99.90;;;;;;5064565;28;21009;-84
2023/08/01 01:00:55;;;;;;;3.93;1.77;;;16.50;99.90;;;;;;5029068;28;20463;-84
2023/08/01 01:03:21;;;;;;;2.63;1.43;;;16.50;99.90;;;;;;5064745;28;20187;-85
2023/08/01 01:05:57;;;;;;;5.97;2.03;;;16.50;99.90;;;;;;5062651;28;20199;-83
2023/08/01 01:08:23;;;;;;;2.43;1.60;;;16.50;99.90;;;;;;5082962;28;20219;-85
2023/08/01 01:10:48;;;;;;;2.30;1.40;;;16.50;99.90;;;;;;5063695;28;20219;-83
2023/08/01 01:13:14;;;;;;;3.40;1.97;;;16.50;99.90;;;;;;5064433;28;20695;-84
2023/08/01 01:15:40;;;;;;;2.63;1.50;;;16.50;99.90;;;;;;5047506;28;21003;-84
2023/08/01 01:18:06;;;;;;;1.97;1.33;;;16.50;99.90;;;;;;5064635;28;20315;-84
2023/08/01 01:20:35;;;;;;;5.87;2.27;;;16.50;99.90;;;;;;5081727;28;20589;-84
2023/08/01 01:23:03;;;;;;;3.37;1.10;;;16.50;99.90;;;;;;5062430;28;20223;-84
2023/08/01 01:25:31;;;;;;;1.63;1.43;;;16.50;99.90;;;;;;5064433;28;20208;-85
2023/08/01 01:27:57;;;;;;;3.20;1.57;;;16.50;99.90;;;;;;5081692;28;20230;-84
2023/08/01 01:30:24;;;;;;;2.87;1.60;;;16.50;99.90;;;;;;5063672;28;20586;-84
2023/08/01 01:32:51;;;;;;;5.10;1.93;;;16.50;99.90;;;;;;5062726;28;20216;-84
2023/08/01 01:35:16;;;;;;;4.13;1.83;;;16.50;99.90;;;;;;5082121;28;20681;-84
2023/08/01 01:37:42;;;;;;;5.33;2.00;;;16.50;99.90;;;;;;5064107;28;20703;-85
2023/08/01 01:40:08;;;;;;;2.33;1.50;;;16.50;99.90;;;;;;5046225;28;20690;-83
2023/08/01 01:42:34;;;;;;;2.20;1.33;;;16.50;99.90;;;;;;5046933;28;20712;-84
2023/08/01 01:45:00;;;;;;;1.57;1.23;;;16.50;99.90;;;;;;5064056;28;20223;-85
2023/08/01 01:47:26;;;;;;;5.87;1.60;;;16.50;99.90;;;;;;5062508;28;20307;-84
2023/08/01 01:49:51;;;;;;;3.37;2.13;;;16.50;99.90;;;;;;5048214;28;20218;-85
2023/08/01 01:52:17;;;;;;;2.53;1.97;;;16.40;99.90;;;;;;5065410;28;20697;-85
2023/08/01 01:54:43;;;;;;;10.20;1.83;;;16.40;99.90;;;;;;5048832;28;20213;-85
2023/08/01 01:57:08;;;;;;;2.50;1.60;;;16.40;99.90;;;;;;5049764;28;20676;-85
2023/08/01 01:59:34;;;;;;;2.27;1.70;;;16.40;99.90;;;;;;5064949;28;20239;-85
2023/08/01 02:02:00;;;;;;;5.23;1.83;;;16.40;99.90;;;;;;5064603;28;20260;-85
2023/08/01 02:04:26;;;;;;;3.37;1.60;;;16.40;99.90;;;;;;5047486;28;20212;-84
2023/08/01 02:06:54;;;;;;;5.60;2.23;;;16.50;99.90;;;;;;5031872;28;20255;-85
2023/08/01 02:09:20;;;;;;;5.57;2.00;;;16.50;99.90;;;;;;5064306;28;20275;-88
2023/08/01 02:11:50;;;;;;;2.20;1.70;;;16.50;99.90;;;;;;5068754;28;20192;-89
2023/08/01 02:14:24;;;;;;;2.47;1.80;;;16.40;99.90;;;;;;5068350;28;20262;-88
2023/08/01 02:16:50;;;;;;;2.23;0.90;;;16.40;99.90;;;;;;5068439;28;20212;-86
2023/08/01 02:19:15;;;;;;;3.63;1.00;;;16.30;99.90;;;;;;5066244;28;20304;-86
2023/08/01 02:21:41;;;;;;;4.53;1.00;;;16.30;99.90;;;;;;5051116;28;20218;-85
2023/08/01 02:24:07;;;;;;;0.93;0.73;;;16.30;99.90;;;;;;5067275;28;20626;-86
2023/08/01 02:26:33;;;;;;;1.47;1.03;;;16.40;99.90;;;;;;5084254;28;20238;-86
2023/08/01 02:28:59;;;;;;;4.67;1.90;;;16.40;99.90;;;;;;5066579;28;20270;-84
2023/08/01 02:31:24;;;;;;;5.87;1.13;;;16.40;99.90;;;;;;5047674;28;20226;-85
2023/08/01 02:33:50;;;;;;;5.30;1.27;;;16.40;99.90;;;;;;5081991;28;20291;-85
2023/08/01 02:36:16;;;;;;;4.47;0.73;;;16.40;99.90;;;;;;5065744;28;20224;-86
2023/08/01 02:38:42;;;;;;;3.37;1.40;;;16.40;99.90;;;;;;5066213;28;20211;-85
2023/08/01 02:41:07;;;;;;;1.80;0.70;;;16.40;99.90;;;;;;5047336;28;20213;-85
2023/08/01 02:43:36;;;;;;;2.90;0.80;;;16.40;99.90;;;;;;5048436;28;20713;-85
2023/08/01 02:46:01;;;;;;;1.80;0.80;;;16.40;99.90;;;;;;5063846;28;20278;-85
2023/08/01 02:48:27;;;;;;;2.50;1.20;;;16.40;99.90;;;;;;5064008;28;20185;-85
2023/08/01 02:50:53;;;;;;;1.10;0.73;;;16.40;99.90;;;;;;5049586;28;20901;-85
2023/08/01 02:53:19;;;;;;;1.93;0.87;;;16.30;99.90;;;;;;5030839;28;20654;-85
2023/08/01 02:55:46;;;;;;;0.57;0.57;;;16.30;99.90;;;;;;5082985;28;20228;-85
2023/08/01 02:58:12;;;;;;;4.63;0.70;;;16.20;99.90;;;;;;5065950;28;20213;-86
2023/08/01 03:00:40;;;;;;;0.73;0.70;;;16.10;99.90;;;;;;5067337;28;20232;-86
2023/08/01 03:03:06;;;;;;;6.70;0.97;;;16.00;99.90;;;;;;5051153;28;20181;-85
2023/08/01 03:05:32;;;;;;;2.80;0.47;;;16.00;99.90;;;;;;5084810;28;20732;-85
2023/08/01 03:07:58;;;;;;;8.77;1.57;;;16.00;99.90;;;;;;5067362;28;20216;-83
2023/08/01 03:10:23;;;;;;;1.77;0.83;;;16.00;99.90;;;;;;5067576;28;20228;-85
2023/08/01 03:12:49;;;;;;;1.03;0.60;;;15.90;99.90;;;;;;5051029;28;20227;-84
2023/08/01 03:15:15;;;;;;;2.20;0.70;;;15.90;99.90;;;;;;5052230;28;20199;-86
2023/08/01 03:17:41;;;;;;;2.47;0.83;;;15.90;99.90;;;;;;5087318;28;20319;-85
2023/08/01 03:20:10;;;;;;;1.53;0.63;;;15.90;99.90;;;;;;5067808;28;20622;-86
2023/08/01 03:22:45;;;;;;;0.80;0.80;;;15.90;99.90;;;;;;5067003;28;20224;-85
2023/08/01 03:25:11;;;;;;;4.87;1.30;;;16.00;99.90;;;;;;5068148;28;20275;-86
2023/08/01 03:27:37;;;;;;;1.13;0.70;;;16.00;99.90;;;;;;5068395;28;20856;-86
2023/08/01 03:30:04;;;;;;;3.00;0.73;;;16.00;99.90;;;;;;5066578;28;20189;-86
2023/08/01 03:32:30;;;;;;;1.10;1.00;;;16.00;99.90;;;;;;5084818;28;20736;-85
2023/08/01 03:34:56;;;;;;;0.73;0.50;;;16.00;99.90;;;;;;5066331;28;20319;-86
2023/08/01 03:37:22;;;;;;;0.60;0.60;;;16.00;99.90;;;;;;5040730;28;20232;-86
2023/08/01 03:39:48;;;;;;;1.10;0.90;;;16.00;99.90;;;;;;5065963;28;20237;-84
2023/08/01 03:42:13;;;;;;;5.07;0.70;;;16.00;99.90;;;;;;5049988;28;20195;-86
2023/08/01 03:44:39;;;;;;;1.00;0.80;;;16.00;99.90;;;;;;5065474;28;20743;-85
2023/08/01 03:47:06;;;;;;;1.33;1.13;;;16.00;99.90;;;;;;5083674;28;20212;-84
2023/08/01 03:49:32;;;;;;;3.53;0.77;;;16.10;99.90;;;;;;5067398;28;20730;-84
2023/08/01 03:51:58;;;;;;;1.37;0.50;;;16.10;99.90;;;;;;5066974;28;20209;-85
2023/08/01 03:54:24;;;;;;;0.87;0.70;;;16.10;99.90;;;;;;5050266;28;20537;-85
2023/08/01 03:56:53;;;;;;;6.63;1.37;;;16.20;99.90;;;;;;5067573;28;20254;-85
2023/08/01 03:59:26;;;;;;;2.63;1.23;;;16.20;99.90;;;;;;5051335;28;20313;-86
2023/08/01 04:01:51;;;;;;;1.60;0.50;;;16.20;99.90;;;;;;5067798;28;21074;-86
2023/08/01 04:04:17;;;;;;;1.40;0.70;;;16.30;99.90;;;;;;5068223;28;20331;-86
2023/08/01 04:06:43;;;;;;;2.20;1.03;;;16.30;99.90;;;;;;5066753;28;21010;-86
2023/08/01 04:09:09;;;;;;;5.33;1.17;;;16.30;99.90;;;;;;5066941;28;20200;-86
2023/08/01 04:11:35;;;;;;;1.13;0.60;;;16.30;99.90;;;;;;5068128;28;20244;-86
2023/08/01 04:14:01;;;;;;;3.93;0.80;;;16.40;99.90;;;;;;5049766;28;20216;-85
2023/08/01 04:16:26;;;;;;;6.63;0.47;;;16.40;99.90;;;;;;5067154;28;20235;-85
2023/08/01 04:18:52;;;;;;;3.07;0.50;;;16.40;99.90;;;;;;5067257;28;20228;-86
2023/08/01 04:21:18;;;;;;;2.43;0.63;;;15.80;99.90;;;;;;5052201;28;20189;-86
2023/08/01 04:23:44;;;;;;;0.90;0.57;;;15.70;99.90;;;;;;5050635;28;20782;-85
2023/08/01 04:26:10;;;;;;;5.97;1.50;;;15.60;99.90;;;;;;5066469;28;20299;-85
2023/08/01 04:28:36;;;;;;;5.70;1.17;;;15.60;99.90;;;;;;5066653;28;20216;-86
2023/08/01 04:31:01;;;;;;;3.30;1.10;;;15.50;99.90;;;;;;5066995;28;20223;-84
2023/08/01 04:33:27;;;;;;;4.03;1.53;;;15.60;99.90;;;;;;5083603;28;20177;-85
2023/08/01 04:35:53;;;;;;;15.53;1.40;;;15.60;99.90;;;;;;5064024;28;20573;-85
2023/08/01 04:38:19;;;;;;;3.77;2.10;;;15.70;99.90;;;;;;5065885;28;20278;-85
2023/08/01 04:40:45;;;;;;;7.70;2.20;;;15.80;99.90;;;;;;5049510;28;20248;-86
2023/08/01 04:43:19;;;;;;;2.70;1.87;;;15.80;99.90;;;;;;5084277;28;20224;-86
2023/08/01 04:45:45;;;;;;;15.33;1.90;;;15.80;99.90;;;;;;5066840;28;20208;-85
2023/08/01 04:48:14;;;;;;;8.40;1.37;;;15.90;99.90;;;;;;5068720;28;20185;-86
2023/08/01 04:50:40;;;;;;;8.60;1.57;;;15.90;99.90;;;;;;5068598;28;20261;-85
2023/08/01 04:53:06;;;;;;;3.10;1.20;;;16.00;99.90;;;;;;5051139;28;20250;-86
2023/08/01 04:55:32;;;;;;;2.50;1.20;;;16.00;99.90;;;;;;5066792;28;20708;-87
2023/08/01 04:58:01;;;;;;;5.57;1.47;;;16.00;99.90;;;;;;5068148;28;20834;-87
2023/08/01 05:00:27;;;;;;;2.70;0.83;;;16.00;99.90;;;;;;5034823;28;20282;-85
2023/08/01 05:02:53;;;;;;;9.90;1.43;;;16.10;99.90;;;;;;5051343;28;20649;-85
2023/08/01 05:05:19;;;;;;;3.60;0.93;;;16.10;99.90;;;;;;5033556;28;20227;-86
2023/08/01 05:07:44;;;;;;;3.80;0.93;;;16.20;99.90;;;;;;5031892;28;20212;-86
2023/08/01 05:10:10;;;;;;;2.03;1.20;;;16.20;99.90;;;;;;5049000;28;20277;-85
2023/08/01 05:12:36;;;;;;;2.47;0.93;;;16.30;99.90;;;;;;5066807;28;20223;-86
2023/08/01 05:15:08;;;;;;;1.87;1.43;;;16.30;99.90;;;;;;5085062;28;20199;-85
2023/08/01 05:17:34;;;;;;;3.90;0.90;;;16.30;99.90;;;;;;5050303;28;20635;-86
2023/08/01 05:20:00;;;;;;;3.50;1.43;;;16.30;99.90;;;;;;5064833;28;20220;-85
2023/08/01 05:22:26;;;;;;;1.43;0.70;;;16.20;99.90;;;;;;5066656;28;20225;-85
2023/08/01 05:24:52;;;;;;;2.73;0.50;;;16.20;99.90;;;;;;5032263;28;20303;-85
2023/08/01 05:27:17;;;;;;;0.77;0.70;;;16.20;99.90;;;;;;5083510;28;20230;-85
2023/08/01 05:29:43;;;;;;;2.67;1.30;;;16.20;99.90;;;;;;5066385;28;20192;-85
2023/08/01 05:32:09;;;;;;;1.70;1.33;;;16.10;99.90;;;;;;5083856;28;20228;-84
2023/08/01 05:34:38;;;;;;;1.67;0.70;;;16.20;99.90;;;;;;5083583;28;20225;-85
2023/08/01 05:37:04;;;;;;;0.60;0.60;;;16.20;99.90;;;;;;5032039;28;20252;-85
2023/08/01 05:39:30;;;;;;;0.70;0.70;;;16.10;99.90;;;;;;5084806;28;20613;-83
2023/08/01 05:41:55;;;;;;;0.70;0.67;;;16.10;99.90;;;;;;5063390;28;20181;-84
2023/08/01 05:44:21;;;;;;;1.70;1.07;;;16.10;99.90;;;;;;5030565;28;20823;-82
2023/08/01 05:46:47;;;;;;;0.43;0.43;;;16.10;99.90;;;;;;5063692;28;20242;-83
2023/08/01 05:49:20;;;;;;;0.77;0.77;;;16.20;99.90;;;;;;5064247;28;20321;-85
2023/08/01 05:51:46;;;;;;;0.50;0.23;;;16.20;99.90;;;;;;5057682;28;20208;-83
2023/08/01 05:54:15;;;;;;;3.60;1.17;;;16.30;99.90;;;;;;5064738;28;20703;-83
2023/08/01 05:56:43;;;;;;;5.20;0.53;;;16.50;99.90;;;;;;5064810;28;20221;-86
2023/08/01 05:59:09;;;;;;;1.10;0.97;;;16.70;99.90;;;;;;5063461;28;20264;-87
2023/08/01 06:01:35;;;;;;;1.10;0.90;;;16.90;99.90;;;;;;5064130;28;20232;-84
2023/08/01 06:04:03;;;;;;;0.57;0.50;;;17.00;99.90;;;;;;5063695;28;20216;-85
2023/08/01 06:06:29;;;;;;;1.43;1.33;;;17.20;99.90;;;;;;5047987;28;20200;-84
2023/08/01 06:08:55;;;;;;;1.63;0.90;;;17.50;99.90;;;;;;5065557;28;20180;-84
2023/08/01 06:11:21;;;;;;;9.43;1.30;;;17.60;99.90;;;;;;5066211;28;20698;-86
2023/08/01 06:13:56;;;;;;;5.77;1.00;;;17.80;99.90;;;;;;5049768;28;20240;-88
2023/08/01 06:16:49;;;;;;;3.70;0.87;;;17.80;99.90;;;;;;5063768;28;20235;-88
2023/08/01 06:19:15;;;;;;;2.23;0.53;;;17.80;99.90;;;;;;5048817;28;20232;-85
2023/08/01 06:21:44;;;;;;;2.67;0.73;;;17.60;99.90;;;;;;5048131;28;20270;-88
2023/08/01 06:24:15;;;;;;;0.73;0.73;;;17.50;99.90;;;;;;5065135;28;20211;-85
2023/08/01 06:26:41;;;;;;;0.93;0.50;;;17.40;99.90;;;;;;5066310;28;20180;-86
2023/08/01 06:29:07;;;;;;;1.93;0.87;;;17.30;99.90;;;;;;5061108;28;21035;-86
2023/08/01 06:31:36;;;;;;;4.23;0.80;;;17.30;99.90;;;;;;5066734;28;20208;-88
2023/08/01 06:34:04;;;;;;;2.37;0.87;;;17.30;99.90;;;;;;5067277;28;20262;-86
2023/08/01 06:36:36;;;;;;;1.83;0.57;;;17.30;99.90;;;;;;5067595;28;20258;-85
2023/08/01 06:39:05;;;;;;;1.13;0.80;;;17.10;99.90;;;;;;5067527;28;20296;-88
2023/08/01 06:41:32;;;;;;;1.63;1.00;;;16.90;99.90;;;;;;5065145;28;20212;-84
2023/08/01 06:43:57;;;;;;;1.37;1.27;;;16.70;99.90;;;;;;5064093;28;20212;-84
2023/08/01 06:46:26;;;;;;;1.13;1.00;;;16.80;99.90;;;;;;5046509;28;20213;-84
2023/08/01 06:48:52;;;;;;;3.13;1.17;;;16.70;99.90;;;;;;5077895;28;20204;-86
2023/08/01 06:51:17;;;;;;;4.70;0.90;;;16.60;99.90;;;;;;5062427;28;20192;-83
2023/08/01 06:53:43;;;;;;;0.80;0.70;;;16.70;99.90;;;;;;5032240;28;20189;-83
2023/08/01 06:56:11;;;;;;;5.63;1.10;;;16.80;99.90;;;;;;5046205;28;20708;-83
2023/08/01 06:58:37;;;;;;;5.50;2.00;;;16.90;99.90;;;;;;5061388;28;20251;-83
2023/08/01 07:01:03;;;;;;;2.87;0.93;;;17.10;99.90;;;;;;5046013;28;20312;-84
2023/08/01 07:03:29;;;;;;;6.97;2.37;;;18.80;99.90;;;;;;5049721;28;20181;-85
2023/08/01 07:05:54;;;;;;;2.57;1.23;;;20.80;99.90;;;;;;5064602;28;20193;-84
2023/08/01 07:08:21;;;;;;;2.30;0.70;;;21.70;99.90;;;;;;5044212;28;20220;-85
2023/08/01 07:10:47;;;;;;;1.30;1.20;;;21.90;99.90;;;;;;5046896;28;20216;-84
2023/08/01 07:13:13;;;;;;;0.70;0.70;;;21.90;99.90;;;;;;5066235;28;20216;-84
2023/08/01 07:15:38;;;;;;;3.40;0.70;;;21.90;99.90;;;;;;5062743;28;20720;-84
2023/08/01 07:18:04;;;;;;;1.60;1.07;;;21.50;99.90;;;;;;5062886;28;20250;-84
2023/08/01 07:20:30;;;;;;;2.17;0.80;;;20.90;99.90;;;;;;5081920;28;20251;-84
2023/08/01 07:22:56;;;;;;;3.00;1.03;;;19.90;99.90;;;;;;5045533;28;20329;-84
2023/08/01 07:25:22;;;;;;;2.93;1.10;;;19.90;99.90;;;;;;5062906;28;20219;-84
2023/08/01 07:27:48;;;;;;;2.30;0.90;;;19.90;99.90;;;;;;5078883;28;20239;-83
2023/08/01 07:30:14;;;;;;;2.30;1.10;;;20.40;99.90;;;;;;5060825;28;20192;-85
2023/08/01 07:32:43;;;;;;;0.70;0.70;;;21.10;99.90;;;;;;5064900;28;20200;-84
2023/08/01 07:35:09;;;;;;;1.43;1.23;;;20.60;99.90;;;;;;5044683;28;20224;-84
2023/08/01 07:37:37;;;;;;;8.17;1.30;;;20.60;99.90;;;;;;5078848;28;21021;-84
2023/08/01 07:40:07;;;;;;;7.63;0.97;;;21.00;99.90;;;;;;5077769;28;20234;-85
2023/08/01 07:42:33;;;;;;;0.83;0.67;;;19.80;99.90;;;;;;5061434;28;20655;-86
2023/08/01 07:44:58;;;;;;;3.53;0.90;;;18.60;99.90;;;;;;5081623;28;20215;-84
2023/08/01 07:47:24;;;;;;;2.73;0.70;;;17.80;99.90;;;;;;5043203;28;20251;-84
2023/08/01 07:49:51;;;;;;;0.30;0.30;;;17.50;99.90;;;;;;5043223;28;20732;-85
2023/08/01 07:52:17;;;;;;;0.60;0.60;;;17.40;99.90;;;;;;5062173;28;20569;-84
2023/08/01 07:54:45;;;;;;;2.40;0.57;;;17.50;99.90;;;;;;5046486;28;20208;-85
2023/08/01 07:57:11;;;;;;;2.53;0.40;;;17.60;99.90;;;;;;5047347;28;20181;-85
2023/08/01 07:59:37;;;;;;;2.77;0.60;;;17.80;99.90;;;;;;5046156;28;20632;-85
2023/08/01 08:02:03;;;;;;;0.43;0.40;;;18.30;99.90;;;;;;5046163;28;20239;-85
2023/08/01 08:04:29;;;;;;;3.23;1.13;;;19.00;99.90;;;;;;5064632;28;20224;-83
2023/08/01 08:06:59;;;;;;;1.17;0.90;;;19.70;99.90;;;;;;5062647;28;20208;-82
2023/08/01 08:09:28;;;;;;;0.83;0.70;;;20.00;99.90;;;;;;5060922;28;20262;-84
2023/08/01 08:11:57;;;;;;;0.60;0.60;;;20.10;99.90;;;;;;5064379;28;20628;-84
2023/08/01 08:14:23;;;;;;;3.60;0.80;;;19.70;99.90;;;;;;5029992;28;20224;-84
2023/08/01 08:16:49;;;;;;;0.70;0.70;;;19.60;99.90;;;;;;5046095;28;20215;-85
2023/08/01 08:19:28;;;;;;;0.67;0.67;;;19.50;99.90;;;;;;5058208;28;20387;-86
2023/08/01 08:21:54;;;;;;;0.93;0.60;;;19.10;99.90;;;;;;5077063;28;20213;-84
2023/08/01 08:24:20;;;;;;;1.37;0.80;;;18.90;99.90;;;;;;5043988;28;20338;-84
2023/08/01 08:26:46;;;;;;;0.27;0.27;;;18.80;99.90;;;;;;5061031;28;20192;-84
2023/08/01 08:29:17;;;;;;;3.13;1.03;;;18.60;99.90;;;;;;5048110;28;20224;-83
2023/08/01 08:31:42;;;;;;;1.50;0.93;;;18.40;99.90;;;;;;5045591;28;20220;-83
2023/08/01 08:34:11;;;;;;;3.23;0.97;;;18.30;99.90;;;;;;5078666;28;20292;-84
2023/08/01 08:36:36;;;;;;;2.73;1.67;;;18.00;99.90;;;;;;5043857;28;20299;-85
2023/08/01 08:39:03;;;;;;;3.07;1.17;;;17.90;99.90;;;;;;5058243;28;21523;-85
2023/08/01 08:41:36;;;;;;;2.13;0.90;;;17.80;99.90;;;;;;5062594;28;20218;-85
2023/08/01 08:44:06;;;;;;;4.03;1.20;;;17.80;99.90;;;;;;5061931;28;20232;-84
2023/08/01 08:46:36;;;;;;;3.20;1.17;;;17.80;99.90;;;;;;5077205;28;20216;-85
2023/08/01 08:49:02;;;;;;;1.97;0.90;;;17.90;99.90;;;;;;5055713;28;20634;-85
2023/08/01 08:51:29;;;;;;;1.27;1.00;;;18.70;99.90;;;;;;5045367;28;20181;-84
2023/08/01 08:53:57;;;;;;;0.67;0.67;;;19.80;99.90;;;;;;5059325;28;20212;-83
2023/08/01 08:56:23;;;;;;;9.67;1.27;;;20.00;99.90;;;;;;5078449;28;20276;-84
2023/08/01 08:58:50;;;;;;;2.57;0.73;;;19.80;99.90;;;;;;5055822;28;20212;-85
2023/08/01 09:01:19;;;;;;;5.30;1.97;;;19.90;99.90;;;;;;5042836;28;20474;-85
2023/08/01 09:03:45;;;;;;;4.63;2.03;;;19.40;99.90;;;;;;5059180;28;20869;-84
2023/08/01 09:06:16;;;;;;;0.70;0.70;;;19.20;99.90;;;;;;5041956;28;20190;-85
2023/08/01 09:08:54;;;;;;;0.73;0.73;;;19.70;99.90;;;;;;5055265;28;20212;-86
2023/08/01 09:11:22;;;;;;;4.30;0.80;;;20.80;99.90;;;;;;5058620;28;20208;-85
2023/08/01 09:13:50;;;;;;;1.27;0.97;;;20.80;99.90;;;;;;5043703;28;20584;-85
2023/08/01 09:16:16;;;;;;;3.90;0.70;;;21.30;99.90;;;;;;5026356;28;20220;-86
2023/08/01 09:18:51;;;;;;;0.90;0.80;;;21.90;99.90;;;;;;5055999;28;21143;-85
2023/08/01 09:21:18;;;;;;;0.80;0.80;;;22.70;99.90;;;;;;5060751;28;20696;-85
2023/08/01 09:23:44;;;;;;;1.73;0.87;;;22.10;99.90;;;;;;5060143;28;20573;-85
2023/08/01 09:26:14;;;;;;;3.13;1.00;;;21.00;99.90;;;;;;5042163;28;20337;-85
2023/08/01 09:28:40;;;;;;;1.10;1.10;;;20.10;99.90;;;;;;5055288;28;20679;-87
2023/08/01 09:31:06;;;;;;;2.93;1.10;;;19.60;99.90;;;;;;5042319;28;20212;-86
2023/08/01 09:33:40;;;;;;;1.30;0.80;;;19.60;99.90;;;;;;5060656;28;21012;-85
2023/08/01 09:36:07;;;;;;;2.00;0.87;;;19.40;99.90;;;;;;5059113;28;20189;-85
2023/08/01 09:38:37;;;;;;;1.00;0.67;;;19.40;99.90;;;;;;5076406;28;20219;-85
2023/08/01 09:41:04;;;;;;;1.23;0.80;;;19.30;99.90;;;;;;5046328;28;20240;-85
2023/08/01 09:43:35;;;;;;;0.73;0.73;;;19.60;99.90;;;;;;5044662;28;20299;-85
2023/08/01 09:46:01;;;;;;;0.60;0.60;;;19.60;99.90;;;;;;5045898;28;20395;-85
2023/08/01 09:48:29;;;;;;;1.70;1.60;;;19.70;99.90;;;;;;5061047;28;20184;-85
2023/08/01 09:51:24;;;;;;;2.33;0.90;;;19.90;99.90;;;;;;5046036;28;20203;-86
2023/08/01 09:53:55;;;;;;;1.27;1.17;;;19.80;99.90;;;;;;5039464;28;20217;-85
2023/08/01 09:56:26;;;;;;;1.17;0.87;;;19.80;99.90;;;;;;5061263;28;20700;-86
2023/08/01 09:58:53;;;;;;;4.43;1.00;;;19.90;99.90;;;;;;5079773;28;20619;-84
2023/08/01 10:01:21;;;;;;;1.57;0.90;;;19.80;99.90;;;;;;5060388;28;20323;-85
2023/08/01 10:03:52;;;;;;;2.70;0.93;;;19.80;99.90;;;;;;5061353;28;20244;-86
2023/08/01 10:06:28;;;;;;;0.77;0.77;;;19.70;99.90;;;;;;5061479;28;20641;-87
2023/08/01 10:08:54;;;;;;;2.73;1.03;;;20.10;99.90;;;;;;5062621;28;20173;-84
2023/08/01 10:11:23;;;;;;;1.93;0.70;;;20.90;99.90;;;;;;5061930;28;20581;-85
2023/08/01 10:13:49;;;;;;;3.30;1.30;;;20.90;99.90;;;;;;5060428;28;20216;-85
2023/08/01 10:16:16;;;;;;;4.30;1.63;;;21.10;99.90;;;;;;5061240;28;20237;-85
2023/08/01 10:18:43;;;;;;;4.67;1.07;;;21.30;99.90;;;;;;5043351;28;20698;-85
2023/08/01 10:21:13;;;;;;;1.60;1.10;;;21.50;99.90;;;;;;5060863;28;20216;-86
2023/08/01 10:23:40;;;;;;;3.60;1.10;;;20.60;99.90;;;;;;5062341;28;20212;-84
2023/08/01 10:26:08;;;;;;;2.63;1.03;;;20.50;99.90;;;;;;5062024;28;20246;-85
2023/08/01 10:28:39;;;;;;;4.93;1.17;;;20.50;99.90;;;;;;5079570;28;20216;-84
2023/08/01 10:31:16;;;;;;;2.67;1.10;;;20.60;99.90;;;;;;5079379;28;20223;-85
2023/08/01 10:33:47;;;;;;;2.30;0.67;;;20.80;99.90;;;;;;5044094;28;20216;-85
2023/08/01 10:36:22;;;;;;;0.77;0.73;;;20.90;99.90;;;;;;5061355;28;20184;-86
2023/08/01 10:38:55;;;;;;;2.37;1.27;;;20.60;99.90;;;;;;5079322;28;20180;-87
2023/08/01 10:41:26;;;;;;;2.70;0.90;;;20.50;99.90;;;;;;5045499;28;20216;-85
2023/08/01 10:44:05;;;;;;;1.30;1.20;;;20.70;99.90;;;;;;5061589;28;20302;-85
2023/08/01 10:46:45;;;;;;;0.87;0.70;;;21.30;99.90;;;;;;5061736;28;20220;-87
2023/08/01 10:49:11;;;;;;;3.27;0.97;;;21.70;99.90;;;;;;5060988;28;20223;-87
2023/08/01 10:51:39;;;;;;;5.00;1.00;;;20.90;99.90;;;;;;5047041;28;20212;-86
2023/08/01 10:54:05;;;;;;;1.10;0.67;;;20.50;99.90;;;;;;5060859;28;20188;-83
2023/08/01 10:56:31;;;;;;;1.33;1.20;;;21.10;99.90;;;;;;5059932;28;20227;-86
2023/08/01 10:59:07;;;;;;;0.67;0.60;;;21.50;99.90;;;;;;5046499;28;20225;-87
2023/08/01 11:01:48;;;;;;;6.60;1.00;;;21.40;99.90;;;;;;5061031;28;20451;-85
2023/08/01 11:04:18;;;;;;;1.57;0.60;;;21.40;99.90;;;;;;5062730;28;20256;-87
2023/08/01 11:06:46;;;;;;;0.93;0.60;;;21.10;99.90;;;;;;5046017;28;20212;-86
2023/08/01 11:09:23;;;;;;;4.63;1.07;;;21.00;99.90;;;;;;5078728;28;20188;-85
2023/08/01 11:11:58;;;;;;;7.67;1.60;;;20.80;99.90;;;;;;5076719;28;20725;-85
2023/08/01 11:14:30;;;;;;;2.73;1.07;;;21.00;99.90;;;;;;5079171;28;20212;-86
2023/08/01 11:16:57;;;;;;;3.30;1.37;;;21.20;99.90;;;;;;5078392;28;20217;-86
2023/08/01 11:19:27;;;;;;;0.67;0.50;;;21.20;99.90;;;;;;5063567;28;20297;-85
2023/08/01 11:21:56;;;;;;;0.97;0.90;;;21.00;99.90;;;;;;5052586;28;20570;-88
2023/08/01 11:24:24;;;;;;;4.97;1.23;;;20.80;99.90;;;;;;5054616;28;20188;-87
2023/08/01 11:26:56;;;;;;;2.93;1.00;;;21.40;99.90;;;;;;5074195;28;20173;-86
2023/08/01 11:29:24;;;;;;;2.50;1.10;;;21.00;99.90;;;;;;5062904;28;20208;-85
2023/08/01 11:32:05;;;;;;;3.20;1.33;;;20.50;99.90;;;;;;5074285;28;20977;-86
2023/08/01 11:34:46;;;;;;;2.70;1.13;;;20.60;99.90;;;;;;5029571;28;20285;-87
2023/08/01 11:37:22;;;;;;;2.87;1.27;;;20.60;99.90;;;;;;5059569;28;20397;-88
2023/08/01 11:39:53;;;;;;;3.07;1.07;;;21.00;99.90;;;;;;5067784;28;20238;-88
2023/08/01 11:42:20;;;;;;;1.53;1.20;;;20.80;99.90;;;;;;5038765;28;20189;-85
2023/08/01 11:44:49;;;;;;;0.60;0.60;;;20.90;99.90;;;;;;5078050;28;20657;-86
2023/08/01 11:47:16;;;;;;;1.40;1.30;;;20.90;99.90;;;;;;5043777;28;20228;-86
2023/08/01 11:49:47;;;;;;;0.80;0.80;;;21.40;99.90;;;;;;5050157;28;20760;-87
2023/08/01 11:52:26;;;;;;;1.80;1.03;;;21.20;99.90;;;;;;5039451;28;20233;-88
2023/08/01 11:54:54;;;;;;;25.57;1.73;;;21.30;99.90;;;;;;5058626;28;20285;-86
2023/08/01 11:57:24;;;;;;;2.40;1.23;;;21.20;99.90;;;;;;5058096;28;20188;-86
2023/08/01 11:59:55;;;;;;;3.27;1.30;;;20.90;99.90;;;;;;5062171;28;20288;-84
2023/08/01 12:02:31;;;;;;;1.80;1.20;;;20.40;99.90;;;;;;5070458;28;20240;-86
2023/08/01 12:04:57;;;;;;;1.90;1.43;;;20.10;99.90;;;;;;5077059;28;20220;-83
2023/08/01 12:07:26;;;;;;;5.77;1.30;;;20.10;99.90;;;;;;5069150;28;20228;-86
2023/08/01 12:09:57;;;;;;;4.93;1.27;;;20.50;99.90;;;;;;5042596;28;20745;-85
2023/08/01 12:12:23;;;;;;;1.40;1.10;;;20.10;99.90;;;;;;5054624;28;20191;-84
2023/08/01 12:14:52;;;;;;;1.00;1.00;;;19.90;99.90;;;;;;5059098;28;20181;-83
2023/08/01 12:17:18;;;;;;;2.40;1.07;;;19.90;99.90;;;;;;5059967;28;20311;-85
2023/08/01 12:19:45;;;;;;;3.57;1.20;;;19.60;99.90;;;;;;5058620;28;20350;-84
2023/08/01 12:22:20;;;;;;;2.90;1.30;;;20.00;99.90;;;;;;5045337;28;20481;-85
2023/08/01 12:30:10;;;;;;;1.33;1.17;;;20.10;99.90;;;;;;4945723;28;20716;-83
2023/08/01 12:44:45;;;;;;;0.60;0.60;;;19.80;99.90;;;;;;4834915;29;20291;-85
2023/08/01 12:55:38;;;;;;;;;;;;;;;;;;;;;
2023/08/01 12:59:23;;;;;;;1.80;0.53;;;18.80;99.90;;;;;;4813932;29;20290;-81
2023/08/01 13:02:47;;;;;;;;;;;;;;;;;;;;;
2023/08/01 13:25:17;;;;;;;1.13;0.93;;;20.30;99.90;;;;;;6167783;22;1481432;-86
2023/08/01 13:27:49;;;;;;;2.07;0.90;;;20.40;99.90;;;;;;6134082;23;20752;-86
2023/08/01 13:30:17;;;;;;;0.70;0.60;;;20.70;99.90;;;;;;6067227;23;20165;-87
2023/08/01 13:32:45;;;;;;;2.57;0.80;;;20.60;99.90;;;;;;6099631;23;20164;-87
2023/08/01 13:35:11;;;;;;;0.87;0.57;;;20.20;99.90;;;;;;6099355;23;20274;-87
2023/08/01 13:37:40;;;;;;;7.73;0.97;;;20.10;99.90;;;;;;6124506;23;20192;-87